Naval Air Station/JRB, Texas
Current Conditions -  °F | °C
As of 5:52 AM on Friday 19 Dec 2014 (Local Time) from KNFW Reporting Station
Light Rain Light Rain  
Wind Chill: 45°   Ceiling: 700
Heat Index: 49°   Visibility: 8mi
Dew Point: 42°   Wind: 8mph
Humidity: 77%   Direction: 340°NNW
Pressure: 30.21"   Gusts: NA
Location:  32.7796°N, 97.4234°W
Report Text: KNFW 191152Z AUTO 34007KT 8SM -RA BKN007 OVC080 09/06 A3021 RMK AO2 SLP212 P0006 60011 70011 T00940056 10100 20094 50013
Loading
Personal Weather Stations






























Interactive Weather Map New forecast layout! Learn more

10-Day Weather Forecast

Advertisements
Track Severe Weather on mobile